sensor_id;sensor_type;location;lat;lon;timestamp;pressure;altitude;pressure_sealevel;temperature;humidity
69245;BME280;56357;52.304;4.870;2024-03-02T00:00:06;99968.56;;;19.50;52.61
69245;BME280;56357;52.304;4.870;2024-03-02T00:02:46;99963.06;;;19.45;52.82
69245;BME280;56357;52.304;4.870;2024-03-02T00:05:15;99977.22;;;19.40;52.80
69245;BME280;56357;52.304;4.870;2024-03-02T00:07:42;99968.56;;;19.37;52.75
69245;BME280;56357;52.304;4.870;2024-03-02T00:10:11;99980.00;;;19.27;53.15
69245;BME280;56357;52.304;4.870;2024-03-02T00:12:38;99984.72;;;19.12;53.39
69245;BME280;56357;52.304;4.870;2024-03-02T00:18:13;99989.50;;;19.12;53.35
69245;BME280;56357;52.304;4.870;2024-03-02T00:20:40;99990.94;;;18.96;53.88
69245;BME280;56357;52.304;4.870;2024-03-02T00:23:09;99995.06;;;18.98;53.55
69245;BME280;56357;52.304;4.870;2024-03-02T00:25:41;99989.72;;;18.83;53.61
69245;BME280;56357;52.304;4.870;2024-03-02T00:28:32;99987.06;;;18.92;53.84
69245;BME280;56357;52.304;4.870;2024-03-02T00:31:12;99984.78;;;18.94;53.42
69245;BME280;56357;52.304;4.870;2024-03-02T00:33:47;100002.69;;;18.98;53.39
69245;BME280;56357;52.304;4.870;2024-03-02T00:36:24;100005.56;;;18.93;53.38
69245;BME280;56357;52.304;4.870;2024-03-02T00:38:53;100011.66;;;18.81;53.75
69245;BME280;56357;52.304;4.870;2024-03-02T00:41:30;99994.44;;;18.88;53.27
69245;BME280;56357;52.304;4.870;2024-03-02T00:44:01;99984.22;;;18.78;53.40
69245;BME280;56357;52.304;4.870;2024-03-02T00:46:42;99997.88;;;18.66;53.90
69245;BME280;56357;52.304;4.870;2024-03-02T00:49:21;99997.56;;;18.68;54.15
69245;BME280;56357;52.304;4.870;2024-03-02T00:51:49;100007.56;;;18.74;53.94
69245;BME280;56357;52.304;4.870;2024-03-02T00:54:19;100002.66;;;18.66;53.78
69245;BME280;56357;52.304;4.870;2024-03-02T00:56:47;100005.22;;;18.62;53.82
69245;BME280;56357;52.304;4.870;2024-03-02T00:59:13;100015.38;;;18.58;53.94
69245;BME280;56357;52.304;4.870;2024-03-02T01:01:40;100006.22;;;18.53;53.82
69245;BME280;56357;52.304;4.870;2024-03-02T01:04:07;100018.13;;;18.63;53.79
69245;BME280;56357;52.304;4.870;2024-03-02T01:06:34;100012.59;;;18.58;53.91
69245;BME280;56357;52.304;4.870;2024-03-02T01:09:01;100014.53;;;18.58;53.87
69245;BME280;56357;52.304;4.870;2024-03-02T01:11:28;100009.03;;;18.53;53.84
69245;BME280;56357;52.304;4.870;2024-03-02T01:13:55;100017.13;;;18.54;53.66
69245;BME280;56357;52.304;4.870;2024-03-02T01:16:21;100030.09;;;18.50;54.00
69245;BME280;56357;52.304;4.870;2024-03-02T01:18:48;100024.72;;;18.54;53.66
69245;BME280;56357;52.304;4.870;2024-03-02T01:21:15;100012.97;;;18.52;53.50
69245;BME280;56357;52.304;4.870;2024-03-02T01:23:41;100018.88;;;18.50;53.66
69245;BME280;56357;52.304;4.870;2024-03-02T01:26:08;100012.50;;;18.45;53.95
69245;BME280;56357;52.304;4.870;2024-03-02T01:28:34;100011.94;;;18.48;53.66
69245;BME280;56357;52.304;4.870;2024-03-02T01:31:01;100012.19;;;18.46;53.92
69245;BME280;56357;52.304;4.870;2024-03-02T01:33:28;100014.53;;;18.39;53.99
69245;BME280;56357;52.304;4.870;2024-03-02T01:35:54;100006.31;;;18.48;53.89
69245;BME280;56357;52.304;4.870;2024-03-02T01:38:20;99990.09;;;18.45;54.03
69245;BME280;56357;52.304;4.870;2024-03-02T01:40:47;99992.88;;;18.45;53.58
69245;BME280;56357;52.304;4.870;2024-03-02T01:43:13;99987.94;;;18.37;53.50
69245;BME280;56357;52.304;4.870;2024-03-02T01:45:39;100011.72;;;18.39;53.78
69245;BME280;56357;52.304;4.870;2024-03-02T01:48:07;100020.75;;;18.36;53.76
69245;BME280;56357;52.304;4.870;2024-03-02T01:50:34;100027.16;;;18.37;53.55
69245;BME280;56357;52.304;4.870;2024-03-02T01:53:01;100035.00;;;18.40;53.58
69245;BME280;56357;52.304;4.870;2024-03-02T01:55:27;100048.25;;;18.34;53.50
69245;BME280;56357;52.304;4.870;2024-03-02T01:57:55;100040.59;;;18.40;53.60
69245;BME280;56357;52.304;4.870;2024-03-02T02:00:22;100044.59;;;18.34;53.69
69245;BME280;56357;52.304;4.870;2024-03-02T02:02:50;100031.78;;;18.27;53.56
69245;BME280;56357;52.304;4.870;2024-03-02T02:05:17;100037.03;;;18.34;53.50
69245;BME280;56357;52.304;4.870;2024-03-02T02:07:43;100035.44;;;18.28;53.68
69245;BME280;56357;52.304;4.870;2024-03-02T02:10:10;100058.44;;;18.25;53.15
69245;BME280;56357;52.304;4.870;2024-03-02T02:12:37;100069.38;;;18.26;53.72
69245;BME280;56357;52.304;4.870;2024-03-02T02:15:21;100052.84;;;18.25;53.37
69245;BME280;56357;52.304;4.870;2024-03-02T02:17:48;100036.88;;;18.25;53.73
69245;BME280;56357;52.304;4.870;2024-03-02T02:20:14;100022.09;;;18.20;53.89
69245;BME280;56357;52.304;4.870;2024-03-02T02:22:40;100043.13;;;18.17;53.88
69245;BME280;56357;52.304;4.870;2024-03-02T02:25:18;100036.09;;;18.20;53.52
69245;BME280;56357;52.304;4.870;2024-03-02T02:27:44;100048.06;;;18.25;53.27
69245;BME280;56357;52.304;4.870;2024-03-02T02:30:11;100037.69;;;18.07;53.65
69245;BME280;56357;52.304;4.870;2024-03-02T02:32:37;100042.59;;;18.15;53.76
69245;BME280;56357;52.304;4.870;2024-03-02T02:35:04;100052.78;;;18.11;53.82
69245;BME280;56357;52.304;4.870;2024-03-02T02:37:31;100043.13;;;18.17;53.54
69245;BME280;56357;52.304;4.870;2024-03-02T02:39:57;100049.44;;;18.09;53.62
69245;BME280;56357;52.304;4.870;2024-03-02T02:42:23;100040.72;;;18.11;53.47
69245;BME280;56357;52.304;4.870;2024-03-02T02:44:50;100046.91;;;18.08;53.85
69245;BME280;56357;52.304;4.870;2024-03-02T02:47:16;100035.47;;;18.04;53.67
69245;BME280;56357;52.304;4.870;2024-03-02T02:49:42;100040.53;;;18.02;53.86
69245;BME280;56357;52.304;4.870;2024-03-02T02:52:09;100041.91;;;18.05;53.63
69245;BME280;56357;52.304;4.870;2024-03-02T02:54:37;100047.53;;;18.05;53.80
69245;BME280;56357;52.304;4.870;2024-03-02T02:57:04;100050.63;;;18.03;53.66
69245;BME280;56357;52.304;4.870;2024-03-02T02:59:30;100051.41;;;18.09;53.58
69245;BME280;56357;52.304;4.870;2024-03-02T03:01:56;100058.13;;;18.08;53.75
69245;BME280;56357;52.304;4.870;2024-03-02T03:04:23;100052.91;;;18.01;53.54
69245;BME280;56357;52.304;4.870;2024-03-02T03:06:49;100052.81;;;18.06;53.23
69245;BME280;56357;52.304;4.870;2024-03-02T03:09:15;100049.25;;;18.01;53.70
69245;BME280;56357;52.304;4.870;2024-03-02T03:11:42;100061.88;;;17.98;53.62
69245;BME280;56357;52.304;4.870;2024-03-02T03:14:08;100066.13;;;17.96;53.55
69245;BME280;56357;52.304;4.870;2024-03-02T03:16:34;100062.56;;;17.90;53.76
69245;BME280;56357;52.304;4.870;2024-03-02T03:19:01;100052.13;;;17.96;53.39
69245;BME280;56357;52.304;4.870;2024-03-02T03:21:27;100063.69;;;17.89;53.52
69245;BME280;56357;52.304;4.870;2024-03-02T03:23:53;100055.28;;;17.89;53.72
69245;BME280;56357;52.304;4.870;2024-03-02T03:26:20;100055.28;;;17.89;53.90
69245;BME280;56357;52.304;4.870;2024-03-02T03:28:46;100055.06;;;17.86;53.69
69245;BME280;56357;52.304;4.870;2024-03-02T03:31:13;100059.16;;;17.93;54.15
69245;BME280;56357;52.304;4.870;2024-03-02T03:33:39;100055.94;;;18.05;53.36
69245;BME280;56357;52.304;4.870;2024-03-02T03:36:06;100051.22;;;18.00;53.39
69245;BME280;56357;52.304;4.870;2024-03-02T03:38:32;100066.50;;;17.89;54.27
69245;BME280;56357;52.304;4.870;2024-03-02T03:40:58;100068.25;;;18.04;53.49
69245;BME280;56357;52.304;4.870;2024-03-02T03:43:25;100071.38;;;18.02;53.48
69245;BME280;56357;52.304;4.870;2024-03-02T03:45:51;100071.06;;;18.04;53.35
69245;BME280;56357;52.304;4.870;2024-03-02T03:48:17;100069.06;;;18.09;53.30
69245;BME280;56357;52.304;4.870;2024-03-02T03:50:44;100069.72;;;18.01;53.73
69245;BME280;56357;52.304;4.870;2024-03-02T03:53:11;100073.00;;;18.27;52.87
69245;BME280;56357;52.304;4.870;2024-03-02T03:55:37;100080.88;;;18.25;52.77
69245;BME280;56357;52.304;4.870;2024-03-02T03:58:03;100077.03;;;18.21;53.03
69245;BME280;56357;52.304;4.870;2024-03-02T04:00:30;100087.72;;;18.19;52.98
69245;BME280;56357;52.304;4.870;2024-03-02T04:02:56;100077.91;;;18.16;53.21
69245;BME280;56357;52.304;4.870;2024-03-02T04:05:22;100083.63;;;18.30;53.13
69245;BME280;56357;52.304;4.870;2024-03-02T04:07:49;100084.50;;;18.25;53.11
69245;BME280;56357;52.304;4.870;2024-03-02T04:10:15;100077.41;;;18.33;52.86
69245;BME280;56357;52.304;4.870;2024-03-02T04:12:42;100078.47;;;18.42;52.59
69245;BME280;56357;52.304;4.870;2024-03-02T04:15:08;100092.69;;;18.46;52.52
69245;BME280;56357;52.304;4.870;2024-03-02T04:17:35;100091.31;;;18.62;52.11
69245;BME280;56357;52.304;4.870;2024-03-02T04:20:02;100096.50;;;18.55;52.34
69245;BME280;56357;52.304;4.870;2024-03-02T04:22:30;100098.41;;;18.78;51.66
69245;BME280;56357;52.304;4.870;2024-03-02T04:24:56;100096.44;;;18.78;51.61
69245;BME280;56357;52.304;4.870;2024-03-02T04:27:22;100101.41;;;18.81;51.35
69245;BME280;56357;52.304;4.870;2024-03-02T04:29:49;100104.69;;;18.70;51.61
69245;BME280;56357;52.304;4.870;2024-03-02T04:32:15;100095.69;;;18.73;52.00
69245;BME280;56357;52.304;4.870;2024-03-02T04:34:41;100098.84;;;18.85;51.61
69245;BME280;56357;52.304;4.870;2024-03-02T04:37:08;100094.97;;;18.81;51.78
69245;BME280;56357;52.304;4.870;2024-03-02T04:39:35;100092.09;;;18.86;51.56
69245;BME280;56357;52.304;4.870;2024-03-02T04:42:02;100096.25;;;18.88;51.50
69245;BME280;56357;52.304;4.870;2024-03-02T04:44:29;100096.09;;;18.98;51.28
69245;BME280;56357;52.304;4.870;2024-03-02T04:46:55;100095.75;;;18.86;52.03
69245;BME280;56357;52.304;4.870;2024-03-02T04:49:21;100108.09;;;18.85;52.08
69245;BME280;56357;52.304;4.870;2024-03-02T04:51:48;100112.34;;;19.01;51.46
69245;BME280;56357;52.304;4.870;2024-03-02T04:54:14;100106.72;;;19.01;51.27
69245;BME280;56357;52.304;4.870;2024-03-02T04:56:41;100120.00;;;18.96;51.58
69245;BME280;56357;52.304;4.870;2024-03-02T04:59:14;100120.06;;;18.91;51.51
69245;BME280;56357;52.304;4.870;2024-03-02T05:01:40;100125.53;;;19.01;51.73
69245;BME280;56357;52.304;4.870;2024-03-02T05:04:07;100118.22;;;19.00;51.71
69245;BME280;56357;52.304;4.870;2024-03-02T05:06:33;100122.09;;;19.04;50.89
69245;BME280;56357;52.304;4.870;2024-03-02T05:09:00;100121.28;;;19.03;51.08
69245;BME280;56357;52.304;4.870;2024-03-02T05:11:26;100135.13;;;19.13;51.30
69245;BME280;56357;52.304;4.870;2024-03-02T05:14:13;100128.41;;;19.14;51.01
69245;BME280;56357;52.304;4.870;2024-03-02T05:16:40;100128.19;;;19.11;50.97
69245;BME280;56357;52.304;4.870;2024-03-02T05:19:07;100140.53;;;19.10;51.24
69245;BME280;56357;52.304;4.870;2024-03-02T05:21:34;100142.22;;;19.11;51.31
69245;BME280;56357;52.304;4.870;2024-03-02T05:24:00;100139.63;;;19.14;51.04
69245;BME280;56357;52.304;4.870;2024-03-02T05:26:27;100141.38;;;19.10;51.29
69245;BME280;56357;52.304;4.870;2024-03-02T05:28:53;100140.47;;;19.15;51.55
69245;BME280;56357;52.304;4.870;2024-03-02T05:31:20;100129.25;;;19.15;51.31
69245;BME280;56357;52.304;4.870;2024-03-02T05:33:46;100136.50;;;19.16;51.40
69245;BME280;56357;52.304;4.870;2024-03-02T05:36:12;100151.16;;;19.13;51.13
69245;BME280;56357;52.304;4.870;2024-03-02T05:38:39;100149.44;;;19.17;51.14
69245;BME280;56357;52.304;4.870;2024-03-02T05:41:06;100148.28;;;19.18;50.98
69245;BME280;56357;52.304;4.870;2024-03-02T05:43:32;100155.31;;;19.15;51.32
69245;BME280;56357;52.304;4.870;2024-03-02T05:45:58;100155.47;;;19.24;51.40
69245;BME280;56357;52.304;4.870;2024-03-02T05:48:25;100147.28;;;19.28;51.07
69245;BME280;56357;52.304;4.870;2024-03-02T05:50:51;100158.66;;;19.17;51.25
69245;BME280;56357;52.304;4.870;2024-03-02T05:53:17;100159.94;;;19.25;51.08
69245;BME280;56357;52.304;4.870;2024-03-02T05:55:44;100162.16;;;19.28;50.87
69245;BME280;56357;52.304;4.870;2024-03-02T05:58:11;100155.69;;;19.28;50.96
69245;BME280;56357;52.304;4.870;2024-03-02T06:00:52;100165.88;;;19.24;51.32
69245;BME280;56357;52.304;4.870;2024-03-02T06:03:19;100166.94;;;19.28;51.15
69245;BME280;56357;52.304;4.870;2024-03-02T06:05:46;100160.47;;;19.27;51.04
69245;BME280;56357;52.304;4.870;2024-03-02T06:08:14;100155.63;;;19.33;50.74
69245;BME280;56357;52.304;4.870;2024-03-02T06:10:40;100155.56;;;19.38;50.74
69245;BME280;56357;52.304;4.870;2024-03-02T06:13:07;100149.72;;;19.15;51.55
69245;BME280;56357;52.304;4.870;2024-03-02T06:15:33;100155.91;;;19.31;50.99
69245;BME280;56357;52.304;4.870;2024-03-02T06:18:01;100161.94;;;19.25;51.50
69245;BME280;56357;52.304;4.870;2024-03-02T06:20:27;100164.81;;;19.01;51.92
69245;BME280;56357;52.304;4.870;2024-03-02T06:22:56;100166.16;;;18.85;52.37
69245;BME280;56357;52.304;4.870;2024-03-02T06:25:22;100175.06;;;18.92;52.30
69245;BME280;56357;52.304;4.870;2024-03-02T06:27:48;100167.69;;;19.14;51.82
69245;BME280;56357;52.304;4.870;2024-03-02T06:30:15;100164.44;;;19.07;52.09
69245;BME280;56357;52.304;4.870;2024-03-02T06:32:41;100169.97;;;18.94;52.08
69245;BME280;56357;52.304;4.870;2024-03-02T06:35:08;100172.25;;;18.92;52.68
69245;BME280;56357;52.304;4.870;2024-03-02T06:37:37;100176.13;;;19.33;51.45
69245;BME280;56357;52.304;4.870;2024-03-02T06:40:04;100181.97;;;19.37;51.19
69245;BME280;56357;52.304;4.870;2024-03-02T06:42:32;100191.88;;;19.29;51.30
69245;BME280;56357;52.304;4.870;2024-03-02T06:44:59;100181.59;;;19.43;51.33
69245;BME280;56357;52.304;4.870;2024-03-02T06:47:26;100191.91;;;19.48;51.60
69245;BME280;56357;52.304;4.870;2024-03-02T06:49:52;100190.53;;;19.45;51.77
69245;BME280;56357;52.304;4.870;2024-03-02T06:52:19;100194.84;;;19.00;52.51
69245;BME280;56357;52.304;4.870;2024-03-02T06:54:46;100185.34;;;18.78;53.00
69245;BME280;56357;52.304;4.870;2024-03-02T06:57:12;100189.63;;;18.94;52.79
69245;BME280;56357;52.304;4.870;2024-03-02T06:59:39;100180.22;;;19.22;51.97
69245;BME280;56357;52.304;4.870;2024-03-02T07:02:05;100186.03;;;18.70;52.96
69245;BME280;56357;52.304;4.870;2024-03-02T07:04:31;100196.03;;;18.76;51.70
69245;BME280;56357;52.304;4.870;2024-03-02T07:06:58;100190.03;;;18.64;51.20
69245;BME280;56357;52.304;4.870;2024-03-02T07:09:24;100186.50;;;19.14;50.02
69245;BME280;56357;52.304;4.870;2024-03-02T07:11:51;100190.06;;;19.01;50.52
69245;BME280;56357;52.304;4.870;2024-03-02T07:14:17;100198.59;;;19.33;49.92
69245;BME280;56357;52.304;4.870;2024-03-02T07:16:47;100200.22;;;18.97;50.67
69245;BME280;56357;52.304;4.870;2024-03-02T07:19:12;100204.75;;;18.74;51.55
69245;BME280;56357;52.304;4.870;2024-03-02T07:21:39;100208.34;;;18.80;51.72
69245;BME280;56357;52.304;4.870;2024-03-02T07:24:05;100205.84;;;18.97;51.76
69245;BME280;56357;52.304;4.870;2024-03-02T07:26:34;100212.00;;;18.99;51.40
69245;BME280;56357;52.304;4.870;2024-03-02T07:29:01;100222.81;;;18.87;52.05
69245;BME280;56357;52.304;4.870;2024-03-02T07:31:27;100220.06;;;19.05;51.82
69245;BME280;56357;52.304;4.870;2024-03-02T07:33:53;100221.03;;;18.96;51.97
69245;BME280;56357;52.304;4.870;2024-03-02T07:36:20;100227.63;;;19.24;51.56
69245;BME280;56357;52.304;4.870;2024-03-02T07:38:46;100216.94;;;19.07;52.06
69245;BME280;56357;52.304;4.870;2024-03-02T07:41:15;100224.22;;;19.27;51.67
69245;BME280;56357;52.304;4.870;2024-03-02T07:43:41;100232.41;;;19.23;51.94
69245;BME280;56357;52.304;4.870;2024-03-02T07:46:08;100228.16;;;19.07;52.78
69245;BME280;56357;52.304;4.870;2024-03-02T07:48:34;100234.09;;;19.24;52.41
69245;BME280;56357;52.304;4.870;2024-03-02T07:51:00;100230.63;;;19.32;52.18
69245;BME280;56357;52.304;4.870;2024-03-02T07:53:27;100238.13;;;19.37;52.84
69245;BME280;56357;52.304;4.870;2024-03-02T07:55:54;100240.94;;;19.55;51.48
69245;BME280;56357;52.304;4.870;2024-03-02T07:58:22;100242.44;;;19.66;51.91
69245;BME280;56357;52.304;4.870;2024-03-02T08:00:48;100242.53;;;19.43;52.63
69245;BME280;56357;52.304;4.870;2024-03-02T08:03:14;100246.09;;;19.48;52.43
69245;BME280;56357;52.304;4.870;2024-03-02T08:05:41;100241.53;;;19.52;51.51
69245;BME280;56357;52.304;4.870;2024-03-02T08:08:07;100250.06;;;19.79;51.89
69245;BME280;56357;52.304;4.870;2024-03-02T08:10:34;100241.69;;;19.93;51.29
69245;BME280;56357;52.304;4.870;2024-03-02T08:13:01;100252.47;;;19.72;51.75
69245;BME280;56357;52.304;4.870;2024-03-02T08:15:27;100247.09;;;19.57;53.16
69245;BME280;56357;52.304;4.870;2024-03-02T08:17:53;100239.25;;;19.54;53.07
69245;BME280;56357;52.304;4.870;2024-03-02T08:20:21;100252.22;;;19.50;52.90
69245;BME280;56357;52.304;4.870;2024-03-02T08:22:47;100251.19;;;19.65;52.27
69245;BME280;56357;52.304;4.870;2024-03-02T08:25:14;100250.50;;;19.86;51.78
69245;BME280;56357;52.304;4.870;2024-03-02T08:27:41;100236.75;;;20.17;50.98
69245;BME280;56357;52.304;4.870;2024-03-02T08:30:07;100237.66;;;19.99;51.24
69245;BME280;56357;52.304;4.870;2024-03-02T08:32:35;100242.81;;;19.60;52.53
69245;BME280;56357;52.304;4.870;2024-03-02T08:35:02;100228.22;;;20.08;51.08
69245;BME280;56357;52.304;4.870;2024-03-02T08:37:28;100232.31;;;19.65;51.75
69245;BME280;56357;52.304;4.870;2024-03-02T08:39:55;100235.91;;;19.71;51.94
69245;BME280;56357;52.304;4.870;2024-03-02T08:42:22;100230.13;;;19.62;52.18
69245;BME280;56357;52.304;4.870;2024-03-02T08:44:49;100235.03;;;19.89;51.53
69245;BME280;56357;52.304;4.870;2024-03-02T08:47:15;100230.03;;;19.67;51.25
69245;BME280;56357;52.304;4.870;2024-03-02T08:49:42;100224.03;;;20.06;51.13
69245;BME280;56357;52.304;4.870;2024-03-02T08:52:08;100215.69;;;20.01;50.97
69245;BME280;56357;52.304;4.870;2024-03-02T08:54:35;100229.53;;;19.97;51.17
69245;BME280;56357;52.304;4.870;2024-03-02T08:57:02;100233.91;;;19.90;50.06
69245;BME280;56357;52.304;4.870;2024-03-02T08:59:29;100227.97;;;19.91;50.21
69245;BME280;56357;52.304;4.870;2024-03-02T09:01:57;100235.34;;;20.20;49.74
69245;BME280;56357;52.304;4.870;2024-03-02T09:04:24;100239.44;;;20.41;48.74
69245;BME280;56357;52.304;4.870;2024-03-02T09:06:50;100242.47;;;20.58;49.09
69245;BME280;56357;52.304;4.870;2024-03-02T09:09:16;100250.69;;;20.68;48.62
69245;BME280;56357;52.304;4.870;2024-03-02T09:11:43;100252.06;;;20.57;48.43
69245;BME280;56357;52.304;4.870;2024-03-02T09:14:09;100251.88;;;20.67;48.56
69245;BME280;56357;52.304;4.870;2024-03-02T09:16:35;100258.19;;;21.00;47.82
69245;BME280;56357;52.304;4.870;2024-03-02T09:19:02;100255.63;;;21.03;47.72
69245;BME280;56357;52.304;4.870;2024-03-02T09:21:28;100253.50;;;20.68;47.78
69245;BME280;56357;52.304;4.870;2024-03-02T09:23:55;100239.75;;;20.80;46.28
69245;BME280;56357;52.304;4.870;2024-03-02T09:26:22;100248.09;;;21.12;45.09
69245;BME280;56357;52.304;4.870;2024-03-02T09:28:50;100252.97;;;20.93;46.11
69245;BME280;56357;52.304;4.870;2024-03-02T09:31:17;100252.47;;;20.91;46.49
69245;BME280;56357;52.304;4.870;2024-03-02T09:33:43;100253.84;;;21.07;46.09
69245;BME280;56357;52.304;4.870;2024-03-02T09:36:20;100261.00;;;21.13;46.55
69245;BME280;56357;52.304;4.870;2024-03-02T09:38:49;100263.94;;;21.08;45.69
69245;BME280;56357;52.304;4.870;2024-03-02T09:41:16;100249.16;;;21.38;45.11
69245;BME280;56357;52.304;4.870;2024-03-02T09:43:42;100261.22;;;21.17;45.92
69245;BME280;56357;52.304;4.870;2024-03-02T09:46:09;100250.56;;;21.00;46.02
69245;BME280;56357;52.304;4.870;2024-03-02T09:48:36;100256.84;;;21.24;45.64
69245;BME280;56357;52.304;4.870;2024-03-02T09:51:04;100260.78;;;21.23;45.68
69245;BME280;56357;52.304;4.870;2024-03-02T09:53:32;100262.63;;;21.41;45.24
69245;BME280;56357;52.304;4.870;2024-03-02T09:55:59;100251.16;;;21.38;45.59
69245;BME280;56357;52.304;4.870;2024-03-02T09:58:26;100248.53;;;21.41;45.42
69245;BME280;56357;52.304;4.870;2024-03-02T10:00:53;100248.50;;;21.55;45.35
69245;BME280;56357;52.304;4.870;2024-03-02T10:03:19;100244.88;;;21.41;45.79
69245;BME280;56357;52.304;4.870;2024-03-02T10:05:46;100258.81;;;21.24;45.88
69245;BME280;56357;52.304;4.870;2024-03-02T10:08:12;100245.34;;;21.34;44.67
69245;BME280;56357;52.304;4.870;2024-03-02T10:10:40;100267.78;;;21.61;44.49
69245;BME280;56357;52.304;4.870;2024-03-02T10:13:12;100260.78;;;21.23;45.68
69245;BME280;56357;52.304;4.870;2024-03-02T10:15:40;100259.34;;;21.48;45.69
69245;BME280;56357;52.304;4.870;2024-03-02T10:18:11;100256.63;;;21.21;45.72
69245;BME280;56357;52.304;4.870;2024-03-02T10:20:38;100256.38;;;21.31;45.96
69245;BME280;56357;52.304;4.870;2024-03-02T10:23:15;100252.97;;;21.56;46.28
69245;BME280;56357;52.304;4.870;2024-03-02T10:25:43;100261.00;;;21.62;45.52
69245;BME280;56357;52.304;4.870;2024-03-02T10:28:10;100262.66;;;21.63;46.03
69245;BME280;56357;52.304;4.870;2024-03-02T10:30:36;100271.59;;;21.43;45.90
69245;BME280;56357;52.304;4.870;2024-03-02T10:33:03;100265.56;;;21.36;46.79
69245;BME280;56357;52.304;4.870;2024-03-02T10:35:32;100260.19;;;21.48;46.10
69245;BME280;56357;52.304;4.870;2024-03-02T10:38:03;100246.97;;;21.49;45.61
69245;BME280;56357;52.304;4.870;2024-03-02T10:40:31;100261.22;;;20.89;46.93
69245;BME280;56357;52.304;4.870;2024-03-02T10:42:58;100252.47;;;20.77;44.77
69245;BME280;56357;52.304;4.870;2024-03-02T10:45:25;100252.47;;;21.18;42.79
69245;BME280;56357;52.304;4.870;2024-03-02T10:47:51;100236.53;;;21.49;41.70
69245;BME280;56357;52.304;4.870;2024-03-02T10:50:18;100243.50;;;21.16;43.42
69245;BME280;56357;52.304;4.870;2024-03-02T10:52:45;100237.66;;;21.48;43.56
69245;BME280;56357;52.304;4.870;2024-03-02T10:55:11;100232.16;;;21.65;43.75
69245;BME280;56357;52.304;4.870;2024-03-02T10:57:50;100237.13;;;21.24;44.46
69245;BME280;56357;52.304;4.870;2024-03-02T11:00:18;100231.03;;;21.31;44.78
69245;BME280;56357;52.304;4.870;2024-03-02T11:02:51;100247.00;;;21.35;44.94
69245;BME280;56357;52.304;4.870;2024-03-02T11:05:39;100243.97;;;21.32;45.26
69245;BME280;56357;52.304;4.870;2024-03-02T11:08:08;100233.63;;;21.41;45.04
69245;BME280;56357;52.304;4.870;2024-03-02T11:10:38;100226.88;;;21.28;44.99
69245;BME280;56357;52.304;4.870;2024-03-02T11:13:12;100242.63;;;21.29;45.56
69245;BME280;56357;52.304;4.870;2024-03-02T11:15:40;100235.03;;;21.30;45.44
69245;BME280;56357;52.304;4.870;2024-03-02T11:18:07;100227.47;;;21.03;46.18
69245;BME280;56357;52.304;4.870;2024-03-02T11:20:38;100228.03;;;21.27;46.36
69245;BME280;56357;52.304;4.870;2024-03-02T11:23:06;100221.88;;;21.25;46.28
69245;BME280;56357;52.304;4.870;2024-03-02T11:25:32;100218.59;;;21.45;46.20
69245;BME280;56357;52.304;4.870;2024-03-02T11:28:03;100223.34;;;21.58;46.02
69245;BME280;56357;52.304;4.870;2024-03-02T11:33:04;100228.44;;;21.34;46.64
69245;BME280;56357;52.304;4.870;2024-03-02T11:35:36;100232.72;;;21.32;46.81
69245;BME280;56357;52.304;4.870;2024-03-02T11:38:03;100225.91;;;21.33;47.07
69245;BME280;56357;52.304;4.870;2024-03-02T11:40:30;100236.06;;;21.34;47.18
69245;BME280;56357;52.304;4.870;2024-03-02T11:42:59;100233.97;;;21.26;47.58
69245;BME280;56357;52.304;4.870;2024-03-02T11:45:26;100242.34;;;21.17;48.06
69245;BME280;56357;52.304;4.870;2024-03-02T11:47:57;100240.28;;;21.09;47.46
69245;BME280;56357;52.304;4.870;2024-03-02T11:50:33;100230.34;;;20.98;48.51
69245;BME280;56357;52.304;4.870;2024-03-02T11:53:00;100224.19;;;20.96;47.83
69245;BME280;56357;52.304;4.870;2024-03-02T11:55:28;100228.78;;;20.92;48.43
69245;BME280;56357;52.304;4.870;2024-03-02T11:57:57;100209.47;;;21.26;47.00
69245;BME280;56357;52.304;4.870;2024-03-02T12:00:24;100221.91;;;21.12;47.02
69245;BME280;56357;52.304;4.870;2024-03-02T12:03:01;100210.63;;;20.98;47.73
69245;BME280;56357;52.304;4.870;2024-03-02T12:05:30;100215.94;;;21.13;47.19
69245;BME280;56357;52.304;4.870;2024-03-02T12:07:57;100224.19;;;20.96;47.55
69245;BME280;56357;52.304;4.870;2024-03-02T12:10:25;100216.47;;;21.15;47.64
69245;BME280;56357;52.304;4.870;2024-03-02T12:13:10;100212.53;;;21.03;47.78
69245;BME280;56357;52.304;4.870;2024-03-02T12:15:38;100203.03;;;21.12;47.47
69245;BME280;56357;52.304;4.870;2024-03-02T12:18:05;100190.50;;;21.18;47.47
69245;BME280;56357;52.304;4.870;2024-03-02T12:20:33;100180.63;;;21.07;47.63
69245;BME280;56357;52.304;4.870;2024-03-02T12:23:01;100185.00;;;21.00;47.35
69245;BME280;56357;52.304;4.870;2024-03-02T12:25:28;100187.59;;;21.10;47.40
69245;BME280;56357;52.304;4.870;2024-03-02T12:27:56;100174.03;;;20.98;47.61
69245;BME280;56357;52.304;4.870;2024-03-02T12:30:23;100177.13;;;21.02;47.65
69245;BME280;56357;52.304;4.870;2024-03-02T12:32:50;100174.50;;;20.91;47.71
69245;BME280;56357;52.304;4.870;2024-03-02T12:35:18;100174.72;;;20.68;48.49
69245;BME280;56357;52.304;4.870;2024-03-02T12:37:46;100169.22;;;20.63;48.33
69245;BME280;56357;52.304;4.870;2024-03-02T12:40:14;100179.31;;;20.64;48.19
69245;BME280;56357;52.304;4.870;2024-03-02T12:42:42;100161.59;;;20.63;48.42
69245;BME280;56357;52.304;4.870;2024-03-02T12:45:09;100165.34;;;20.72;48.14
69245;BME280;56357;52.304;4.870;2024-03-02T12:47:36;100159.19;;;20.84;47.90
69245;BME280;56357;52.304;4.870;2024-03-02T12:50:04;100150.13;;;20.73;48.29
69245;BME280;56357;52.304;4.870;2024-03-02T12:52:30;100157.25;;;20.57;48.80
69245;BME280;56357;52.304;4.870;2024-03-02T12:55:03;100138.66;;;20.70;48.11
69245;BME280;56357;52.304;4.870;2024-03-02T12:57:31;100151.81;;;20.61;48.17